sensor_id;sensor_type;location;lat;lon;timestamp;pressure;altitude;pressure_sealevel;temperature;humidity
63946;BME280;50122;56.330;43.838;2022-08-18T00:02:02;101366.53;;;16.76;76.52
63946;BME280;50122;56.330;43.838;2022-08-18T00:04:32;101365.84;;;16.73;76.63
63946;BME280;50122;56.330;43.838;2022-08-18T00:07:19;101373.06;;;16.71;76.93
63946;BME280;50122;56.330;43.838;2022-08-18T00:09:49;101373.13;;;16.69;77.14
63946;BME280;50122;56.330;43.838;2022-08-18T00:12:24;101375.13;;;16.65;76.91
63946;BME280;50122;56.330;43.838;2022-08-18T00:14:52;101384.22;;;16.61;76.81
63946;BME280;50122;56.330;43.838;2022-08-18T00:17:19;101382.66;;;16.57;76.96
63946;BME280;50122;56.330;43.838;2022-08-18T00:19:47;101391.59;;;16.56;77.20
63946;BME280;50122;56.330;43.838;2022-08-18T00:22:18;101377.56;;;16.53;77.56
63946;BME280;50122;56.330;43.838;2022-08-18T00:24:50;101382.09;;;16.50;77.90
63946;BME280;50122;56.330;43.838;2022-08-18T00:27:24;101372.66;;;16.43;78.13
63946;BME280;50122;56.330;43.838;2022-08-18T00:29:54;101393.00;;;16.46;78.12
63946;BME280;50122;56.330;43.838;2022-08-18T00:32:43;101391.44;;;16.42;78.32
63946;BME280;50122;56.330;43.838;2022-08-18T00:35:29;101398.75;;;16.38;78.44
63946;BME280;50122;56.330;43.838;2022-08-18T00:37:59;101396.94;;;16.39;78.49
63946;BME280;50122;56.330;43.838;2022-08-18T00:40:30;101397.00;;;16.37;78.96
63946;BME280;50122;56.330;43.838;2022-08-18T00:43:05;101390.16;;;16.31;79.08
63946;BME280;50122;56.330;43.838;2022-08-18T00:45:35;101389.41;;;16.29;78.78
63946;BME280;50122;56.330;43.838;2022-08-18T00:48:04;101401.84;;;16.29;78.84
63946;BME280;50122;56.330;43.838;2022-08-18T00:50:36;101394.00;;;16.26;79.20
63946;BME280;50122;56.330;43.838;2022-08-18T00:53:15;101394.25;;;16.21;79.22
63946;BME280;50122;56.330;43.838;2022-08-18T00:55:45;101402.09;;;16.24;79.24
63946;BME280;50122;56.330;43.838;2022-08-18T00:58:24;101392.50;;;16.20;79.04
63946;BME280;50122;56.330;43.838;2022-08-18T01:00:52;101403.19;;;16.20;79.23
63946;BME280;50122;56.330;43.838;2022-08-18T01:03:23;101393.59;;;16.16;79.34
63946;BME280;50122;56.330;43.838;2022-08-18T01:06:15;101398.06;;;16.15;79.61
63946;BME280;50122;56.330;43.838;2022-08-18T01:08:47;101399.81;;;16.17;79.75
63946;BME280;50122;56.330;43.838;2022-08-18T01:11:14;101393.75;;;16.13;79.98
63946;BME280;50122;56.330;43.838;2022-08-18T01:13:41;101397.22;;;16.15;80.26
63946;BME280;50122;56.330;43.838;2022-08-18T01:16:11;101401.84;;;16.11;80.07
63946;BME280;50122;56.330;43.838;2022-08-18T01:18:56;101396.50;;;16.11;80.52
63946;BME280;50122;56.330;43.838;2022-08-18T01:21:46;101389.81;;;16.03;80.62
63946;BME280;50122;56.330;43.838;2022-08-18T01:24:26;101390.81;;;16.00;80.64
63946;BME280;50122;56.330;43.838;2022-08-18T01:27:14;101402.22;;;16.04;80.75
63946;BME280;50122;56.330;43.838;2022-08-18T01:29:49;101402.31;;;16.02;80.54
63946;BME280;50122;56.330;43.838;2022-08-18T01:32:19;101410.44;;;15.99;80.55
63946;BME280;50122;56.330;43.838;2022-08-18T01:34:47;101373.56;;;15.71;80.50
63946;BME280;50122;56.330;43.838;2022-08-18T01:37:17;101408.13;;;15.91;80.91
63946;BME280;50122;56.330;43.838;2022-08-18T01:39:45;101377.88;;;15.73;81.08
63946;BME280;50122;56.330;43.838;2022-08-18T01:42:32;101380.56;;;15.73;81.41
63946;BME280;50122;56.330;43.838;2022-08-18T01:45:00;101400.44;;;15.85;81.42
63946;BME280;50122;56.330;43.838;2022-08-18T01:47:31;101409.09;;;15.90;81.77
63946;BME280;50122;56.330;43.838;2022-08-18T01:50:14;101414.44;;;15.90;81.55
63946;BME280;50122;56.330;43.838;2022-08-18T01:52:40;101405.47;;;15.91;81.82
63946;BME280;50122;56.330;43.838;2022-08-18T01:55:08;101393.53;;;15.81;81.63
63946;BME280;50122;56.330;43.838;2022-08-18T01:57:36;101404.53;;;15.92;81.84
63946;BME280;50122;56.330;43.838;2022-08-18T02:00:10;101405.53;;;15.90;81.95
63946;BME280;50122;56.330;43.838;2022-08-18T02:02:38;101394.19;;;15.86;82.02
63946;BME280;50122;56.330;43.838;2022-08-18T02:05:11;101409.94;;;15.91;82.17
63946;BME280;50122;56.330;43.838;2022-08-18T02:07:40;101405.47;;;15.91;82.13
63946;BME280;50122;56.330;43.838;2022-08-18T02:10:10;101415.06;;;15.95;82.24
63946;BME280;50122;56.330;43.838;2022-08-18T02:12:39;101419.47;;;15.96;82.39
63946;BME280;50122;56.330;43.838;2022-08-18T02:15:07;101420.22;;;15.98;82.30
63946;BME280;50122;56.330;43.838;2022-08-18T02:17:40;101420.16;;;16.00;82.13
63946;BME280;50122;56.330;43.838;2022-08-18T02:20:12;101412.31;;;15.97;82.32
63946;BME280;50122;56.330;43.838;2022-08-18T02:22:39;101413.13;;;15.99;82.26
63946;BME280;50122;56.330;43.838;2022-08-18T02:25:07;101420.00;;;16.03;82.39
63946;BME280;50122;56.330;43.838;2022-08-18T02:27:34;101432.25;;;16.07;82.42
63946;BME280;50122;56.330;43.838;2022-08-18T02:30:04;101430.31;;;16.11;82.78
63946;BME280;50122;56.330;43.838;2022-08-18T02:32:31;101431.09;;;16.13;82.92
63946;BME280;50122;56.330;43.838;2022-08-18T02:34:58;101424.16;;;16.09;82.61
63946;BME280;50122;56.330;43.838;2022-08-18T02:37:24;101428.19;;;16.18;82.66
63946;BME280;50122;56.330;43.838;2022-08-18T02:39:51;101435.34;;;16.17;82.81
63946;BME280;50122;56.330;43.838;2022-08-18T02:42:18;101432.38;;;16.23;82.43
63946;BME280;50122;56.330;43.838;2022-08-18T02:44:44;101431.19;;;16.29;82.66
63946;BME280;50122;56.330;43.838;2022-08-18T02:47:11;101437.25;;;16.32;83.03
63946;BME280;50122;56.330;43.838;2022-08-18T02:49:39;101431.75;;;16.36;83.15
63946;BME280;50122;56.330;43.838;2022-08-18T02:52:06;101435.94;;;16.41;82.82
63946;BME280;50122;56.330;43.838;2022-08-18T02:54:32;101443.78;;;16.44;82.70
63946;BME280;50122;56.330;43.838;2022-08-18T02:57:05;101438.22;;;16.49;82.94
63946;BME280;50122;56.330;43.838;2022-08-18T02:59:33;101431.13;;;16.48;82.86
63946;BME280;50122;56.330;43.838;2022-08-18T03:02:00;101435.22;;;16.55;83.18
63946;BME280;50122;56.330;43.838;2022-08-18T03:04:29;101446.38;;;16.63;83.18
63946;BME280;50122;56.330;43.838;2022-08-18T03:06:59;101438.28;;;16.65;83.39
63946;BME280;50122;56.330;43.838;2022-08-18T03:09:27;101443.25;;;16.73;82.96
63946;BME280;50122;56.330;43.838;2022-08-18T03:11:54;101428.25;;;16.70;82.38
63946;BME280;50122;56.330;43.838;2022-08-18T03:14:21;101437.50;;;16.80;82.28
63946;BME280;50122;56.330;43.838;2022-08-18T03:16:48;101424.41;;;16.76;82.13
63946;BME280;50122;56.330;43.838;2022-08-18T03:19:22;101444.28;;;16.88;82.10
63946;BME280;50122;56.330;43.838;2022-08-18T03:21:49;101434.47;;;16.88;82.67
63946;BME280;50122;56.330;43.838;2022-08-18T03:24:16;101435.78;;;16.97;82.30
63946;BME280;50122;56.330;43.838;2022-08-18T03:26:49;101425.03;;;16.98;82.11
63946;BME280;50122;56.330;43.838;2022-08-18T03:29:17;101426.59;;;17.02;82.11
63946;BME280;50122;56.330;43.838;2022-08-18T03:31:46;101423.69;;;17.07;82.01
63946;BME280;50122;56.330;43.838;2022-08-18T03:34:16;101417.31;;;17.10;82.02
63946;BME280;50122;56.330;43.838;2022-08-18T03:36:47;101413.38;;;17.17;82.25
63946;BME280;50122;56.330;43.838;2022-08-18T03:39:16;101411.31;;;17.22;82.24
63946;BME280;50122;56.330;43.838;2022-08-18T03:41:44;101411.25;;;17.24;81.92
63946;BME280;50122;56.330;43.838;2022-08-18T03:44:27;101416.25;;;17.30;82.01
63946;BME280;50122;56.330;43.838;2022-08-18T18:38:27;101523.53;;;20.98;57.04
63946;BME280;50122;56.330;43.838;2022-08-18T18:41:04;101519.22;;;20.95;56.95
63946;BME280;50122;56.330;43.838;2022-08-18T18:43:41;101520.84;;;20.98;57.69
63946;BME280;50122;56.330;43.838;2022-08-18T18:54:28;101537.66;;;21.02;57.69
63946;BME280;50122;56.330;43.838;2022-08-18T18:56:58;101521.19;;;20.93;57.49
63946;BME280;50122;56.330;43.838;2022-08-18T18:59:46;101536.03;;;20.99;58.17
63946;BME280;50122;56.330;43.838;2022-08-18T19:02:38;101527.97;;;20.99;57.58
63946;BME280;50122;56.330;43.838;2022-08-18T19:05:32;101513.75;;;20.97;57.23
63946;BME280;50122;56.330;43.838;2022-08-18T19:11:00;101533.69;;;21.46;54.99
63946;BME280;50122;56.330;43.838;2022-08-18T19:13:35;101525.66;;;21.59;54.65
63946;BME280;50122;56.330;43.838;2022-08-18T19:16:31;101528.00;;;21.76;53.75
63946;BME280;50122;56.330;43.838;2022-08-18T19:19:03;101531.00;;;21.84;53.68
63946;BME280;50122;56.330;43.838;2022-08-18T19:22:15;101536.72;;;21.93;53.23
63946;BME280;50122;56.330;43.838;2022-08-18T19:25:06;101530.44;;;21.92;53.33
63946;BME280;50122;56.330;43.838;2022-08-18T19:30:18;101523.66;;;21.86;52.94
63946;BME280;50122;56.330;43.838;2022-08-18T19:32:53;101536.72;;;21.93;52.51
63946;BME280;50122;56.330;43.838;2022-08-18T19:35:27;101537.22;;;21.98;52.90
63946;BME280;50122;56.330;43.838;2022-08-18T19:43:31;101549.50;;;21.89;52.83
63946;BME280;50122;56.330;43.838;2022-08-18T19:46:09;101553.28;;;21.86;53.23
63946;BME280;50122;56.330;43.838;2022-08-18T19:51:32;101566.44;;;21.78;53.24
63946;BME280;50122;56.330;43.838;2022-08-18T19:57:33;101578.38;;;21.74;53.03
63946;BME280;50122;56.330;43.838;2022-08-18T20:12:00;101591.69;;;21.50;53.79
63946;BME280;50122;56.330;43.838;2022-08-18T20:14:33;101592.97;;;21.44;54.27
63946;BME280;50122;56.330;43.838;2022-08-18T20:22:07;101583.16;;;21.43;53.44
63946;BME280;50122;56.330;43.838;2022-08-18T20:38:22;101609.72;;;21.22;53.53
63946;BME280;50122;56.330;43.838;2022-08-18T20:40:52;101610.78;;;21.20;53.83
63946;BME280;50122;56.330;43.838;2022-08-18T20:51:43;101606.91;;;21.11;52.78
63946;BME280;50122;56.330;43.838;2022-08-18T20:57:37;101615.16;;;21.08;52.84
63946;BME280;50122;56.330;43.838;2022-08-18T21:00:09;101624.06;;;21.08;52.63
63946;BME280;50122;56.330;43.838;2022-08-18T21:02:57;101626.66;;;21.10;52.73
63946;BME280;50122;56.330;43.838;2022-08-18T21:05:32;101629.34;;;21.10;52.29
63946;BME280;50122;56.330;43.838;2022-08-18T21:10:58;101626.34;;;21.02;52.26
63946;BME280;50122;56.330;43.838;2022-08-18T21:16:08;101636.66;;;21.08;52.01
63946;BME280;50122;56.330;43.838;2022-08-18T21:18:37;101636.09;;;21.03;51.67
63946;BME280;50122;56.330;43.838;2022-08-18T21:21:12;101627.41;;;20.99;51.93
63946;BME280;50122;56.330;43.838;2022-08-18T21:23:50;101635.00;;;20.92;51.93
63946;BME280;50122;56.330;43.838;2022-08-18T21:26:19;101633.25;;;20.91;52.35
63946;BME280;50122;56.330;43.838;2022-08-18T21:28:52;101637.78;;;20.91;52.22
63946;BME280;50122;56.330;43.838;2022-08-18T21:34:14;101643.09;;;20.78;52.26
63946;BME280;50122;56.330;43.838;2022-08-18T21:36:52;101644.16;;;20.75;52.45
63946;BME280;50122;56.330;43.838;2022-08-18T21:39:20;101648.88;;;20.72;52.84
63946;BME280;50122;56.330;43.838;2022-08-18T21:41:50;101657.03;;;20.70;52.33
63946;BME280;50122;56.330;43.838;2022-08-18T21:47:13;101649.53;;;20.61;52.57
63946;BME280;50122;56.330;43.838;2022-08-18T21:49:56;101644.97;;;20.48;52.62
63946;BME280;50122;56.330;43.838;2022-08-18T21:52:28;101660.41;;;20.45;53.21
63946;BME280;50122;56.330;43.838;2022-08-18T21:55:00;101657.06;;;20.41;53.19
63946;BME280;50122;56.330;43.838;2022-08-18T21:57:46;101643.84;;;20.38;52.94
63946;BME280;50122;56.330;43.838;2022-08-18T22:00:16;101652.63;;;20.40;52.78
63946;BME280;50122;56.330;43.838;2022-08-18T22:02:49;101651.41;;;20.32;53.07
63946;BME280;50122;56.330;43.838;2022-08-18T22:05:31;101655.44;;;20.24;53.57
63946;BME280;50122;56.330;43.838;2022-08-18T22:08:21;101658.72;;;20.15;54.43
63946;BME280;50122;56.330;43.838;2022-08-18T22:11:18;101650.16;;;20.08;53.87
63946;BME280;50122;56.330;43.838;2022-08-18T22:14:29;101667.69;;;20.00;54.69
63946;BME280;50122;56.330;43.838;2022-08-18T22:17:32;101662.13;;;19.88;55.01
63946;BME280;50122;56.330;43.838;2022-08-18T22:20:35;101663.97;;;19.88;55.18
63946;BME280;50122;56.330;43.838;2022-08-18T22:26:34;101665.59;;;19.60;55.54
63946;BME280;50122;56.330;43.838;2022-08-18T22:34:08;101690.00;;;19.55;56.84
63946;BME280;50122;56.330;43.838;2022-08-18T22:36:39;101681.72;;;19.44;56.77
63946;BME280;50122;56.330;43.838;2022-08-18T22:39:10;101652.81;;;19.19;57.02
63946;BME280;50122;56.330;43.838;2022-08-18T22:41:39;101690.31;;;19.35;57.71
63946;BME280;50122;56.330;43.838;2022-08-18T22:44:07;101692.25;;;19.33;57.20
63946;BME280;50122;56.330;43.838;2022-08-18T22:46:34;101701.97;;;19.34;57.77
63946;BME280;50122;56.330;43.838;2022-08-18T22:49:01;101695.44;;;19.23;58.20
63946;BME280;50122;56.330;43.838;2022-08-18T22:51:29;101697.69;;;19.15;58.15
63946;BME280;50122;56.330;43.838;2022-08-18T22:53:58;101695.19;;;19.12;57.68
63946;BME280;50122;56.330;43.838;2022-08-18T22:56:26;101646.03;;;18.81;58.04
63946;BME280;50122;56.330;43.838;2022-08-18T22:59:02;101703.75;;;19.03;58.70
63946;BME280;50122;56.330;43.838;2022-08-18T23:01:43;101699.09;;;18.90;58.57
63946;BME280;50122;56.330;43.838;2022-08-18T23:04:11;101710.31;;;18.97;58.49
63946;BME280;50122;56.330;43.838;2022-08-18T23:06:38;101711.44;;;18.93;58.82
63946;BME280;50122;56.330;43.838;2022-08-18T23:09:04;101716.03;;;18.91;58.65
63946;BME280;50122;56.330;43.838;2022-08-18T23:11:31;101718.41;;;18.80;59.13
63946;BME280;50122;56.330;43.838;2022-08-18T23:14:01;101714.94;;;18.78;59.15
63946;BME280;50122;56.330;43.838;2022-08-18T23:16:28;101717.88;;;18.73;59.19
63946;BME280;50122;56.330;43.838;2022-08-18T23:18:58;101712.34;;;18.60;59.83
63946;BME280;50122;56.330;43.838;2022-08-18T23:21:30;101722.53;;;18.53;60.46
63946;BME280;50122;56.330;43.838;2022-08-18T23:24:03;101732.53;;;18.50;60.21
63946;BME280;50122;56.330;43.838;2022-08-18T23:26:31;101730.13;;;18.45;60.38
63946;BME280;50122;56.330;43.838;2022-08-18T23:28:59;101731.06;;;18.44;60.23
63946;BME280;50122;56.330;43.838;2022-08-18T23:31:26;101726.38;;;18.32;60.35
63946;BME280;50122;56.330;43.838;2022-08-18T23:33:56;101738.75;;;18.34;60.39
63946;BME280;50122;56.330;43.838;2022-08-18T23:36:24;101740.00;;;18.27;60.68
63946;BME280;50122;56.330;43.838;2022-08-18T23:38:50;101702.28;;;17.98;60.60
63946;BME280;50122;56.330;43.838;2022-08-18T23:41:20;101743.88;;;18.21;60.41
63946;BME280;50122;56.330;43.838;2022-08-18T23:43:49;101748.25;;;18.22;60.52
63946;BME280;50122;56.330;43.838;2022-08-18T23:46:27;101750.84;;;18.24;60.42
63946;BME280;50122;56.330;43.838;2022-08-18T23:48:57;101755.44;;;18.22;59.87
63946;BME280;50122;56.330;43.838;2022-08-18T23:54:04;101711.91;;;17.83;60.11
63946;BME280;50122;56.330;43.838;2022-08-18T23:56:32;101757.13;;;18.07;60.13
63946;BME280;50122;56.330;43.838;2022-08-18T23:59:02;101714.06;;;17.77;60.27
